sensor_id;sensor_type;location;lat;lon;timestamp;P1;durP1;ratioP1;P2;durP2;ratioP2
51034;SDS011;37062;52.546;13.230;2022-12-07T00:01:03;9.60;;;7.10;;
51034;SDS011;37062;52.546;13.230;2022-12-07T00:03:31;11.07;;;7.50;;
51034;SDS011;37062;52.546;13.230;2022-12-07T00:05:58;8.97;;;7.17;;
51034;SDS011;37062;52.546;13.230;2022-12-07T00:08:26;8.53;;;6.87;;
51034;SDS011;37062;52.546;13.230;2022-12-07T00:10:54;8.70;;;6.60;;
51034;SDS011;37062;52.546;13.230;2022-12-07T00:13:21;9.27;;;7.43;;
51034;SDS011;37062;52.546;13.230;2022-12-07T00:15:48;9.20;;;6.90;;
51034;SDS011;37062;52.546;13.230;2022-12-07T00:18:15;7.87;;;6.33;;
51034;SDS011;37062;52.546;13.230;2022-12-07T00:20:42;8.67;;;7.33;;
51034;SDS011;37062;52.546;13.230;2022-12-07T00:23:09;7.07;;;6.07;;
51034;SDS011;37062;52.546;13.230;2022-12-07T00:25:36;10.37;;;6.80;;
51034;SDS011;37062;52.546;13.230;2022-12-07T00:28:05;8.20;;;6.80;;
51034;SDS011;37062;52.546;13.230;2022-12-07T00:30:34;7.70;;;6.57;;
51034;SDS011;37062;52.546;13.230;2022-12-07T00:33:01;8.10;;;6.77;;
51034;SDS011;37062;52.546;13.230;2022-12-07T00:35:29;10.30;;;6.97;;
51034;SDS011;37062;52.546;13.230;2022-12-07T00:37:56;7.60;;;6.20;;
51034;SDS011;37062;52.546;13.230;2022-12-07T00:40:23;7.90;;;6.20;;
51034;SDS011;37062;52.546;13.230;2022-12-07T00:42:50;8.30;;;6.40;;
51034;SDS011;37062;52.546;13.230;2022-12-07T00:45:19;8.13;;;6.30;;
51034;SDS011;37062;52.546;13.230;2022-12-07T00:47:46;7.93;;;6.17;;
51034;SDS011;37062;52.546;13.230;2022-12-07T00:50:13;7.17;;;6.23;;
51034;SDS011;37062;52.546;13.230;2022-12-07T00:52:40;7.00;;;6.10;;
51034;SDS011;37062;52.546;13.230;2022-12-07T00:55:07;7.87;;;6.33;;
51034;SDS011;37062;52.546;13.230;2022-12-07T00:57:34;6.37;;;5.23;;
51034;SDS011;37062;52.546;13.230;2022-12-07T01:00:03;6.70;;;5.73;;
51034;SDS011;37062;52.546;13.230;2022-12-07T01:02:32;10.33;;;7.00;;
51034;SDS011;37062;52.546;13.230;2022-12-07T01:04:59;7.80;;;6.50;;
51034;SDS011;37062;52.546;13.230;2022-12-07T01:07:26;13.67;;;8.77;;
51034;SDS011;37062;52.546;13.230;2022-12-07T01:09:53;8.23;;;5.70;;
51034;SDS011;37062;52.546;13.230;2022-12-07T01:12:20;28.17;;;14.60;;
51034;SDS011;37062;52.546;13.230;2022-12-07T01:14:47;14.73;;;9.07;;
51034;SDS011;37062;52.546;13.230;2022-12-07T01:17:14;7.50;;;6.27;;
51034;SDS011;37062;52.546;13.230;2022-12-07T01:19:43;7.70;;;5.60;;
51034;SDS011;37062;52.546;13.230;2022-12-07T01:22:10;5.70;;;5.10;;
51034;SDS011;37062;52.546;13.230;2022-12-07T01:24:37;8.83;;;6.27;;
51034;SDS011;37062;52.546;13.230;2022-12-07T01:27:04;7.13;;;5.33;;
51034;SDS011;37062;52.546;13.230;2022-12-07T01:29:31;7.17;;;5.20;;
51034;SDS011;37062;52.546;13.230;2022-12-07T01:31:58;6.33;;;5.17;;
51034;SDS011;37062;52.546;13.230;2022-12-07T01:34:25;5.17;;;4.53;;
51034;SDS011;37062;52.546;13.230;2022-12-07T01:36:54;6.90;;;5.40;;
51034;SDS011;37062;52.546;13.230;2022-12-07T01:39:21;5.50;;;4.57;;
51034;SDS011;37062;52.546;13.230;2022-12-07T01:41:48;6.27;;;4.77;;
51034;SDS011;37062;52.546;13.230;2022-12-07T01:44:17;6.37;;;4.90;;
51034;SDS011;37062;52.546;13.230;2022-12-07T01:46:49;5.40;;;4.60;;
51034;SDS011;37062;52.546;13.230;2022-12-07T01:49:19;5.03;;;4.33;;
51034;SDS011;37062;52.546;13.230;2022-12-07T01:51:57;7.53;;;4.60;;
51034;SDS011;37062;52.546;13.230;2022-12-07T01:54:32;5.10;;;4.27;;
51034;SDS011;37062;52.546;13.230;2022-12-07T01:57:00;5.47;;;4.50;;
51034;SDS011;37062;52.546;13.230;2022-12-07T01:59:27;4.83;;;4.30;;
51034;SDS011;37062;52.546;13.230;2022-12-07T02:01:55;5.53;;;4.60;;
51034;SDS011;37062;52.546;13.230;2022-12-07T02:04:22;6.50;;;4.83;;
51034;SDS011;37062;52.546;13.230;2022-12-07T02:06:50;7.67;;;4.53;;
51034;SDS011;37062;52.546;13.230;2022-12-07T02:09:19;5.13;;;4.50;;
51034;SDS011;37062;52.546;13.230;2022-12-07T02:11:46;6.37;;;5.00;;
51034;SDS011;37062;52.546;13.230;2022-12-07T02:14:13;5.97;;;4.80;;
51034;SDS011;37062;52.546;13.230;2022-12-07T02:16:43;6.70;;;4.70;;
51034;SDS011;37062;52.546;13.230;2022-12-07T02:19:24;5.73;;;4.53;;
51034;SDS011;37062;52.546;13.230;2022-12-07T02:22:09;6.87;;;4.90;;
51034;SDS011;37062;52.546;13.230;2022-12-07T02:24:52;5.67;;;4.60;;
51034;SDS011;37062;52.546;13.230;2022-12-07T02:27:34;4.60;;;4.10;;
51034;SDS011;37062;52.546;13.230;2022-12-07T02:30:07;7.23;;;5.50;;
51034;SDS011;37062;52.546;13.230;2022-12-07T02:32:39;6.37;;;5.17;;
51034;SDS011;37062;52.546;13.230;2022-12-07T02:35:11;5.57;;;4.97;;
51034;SDS011;37062;52.546;13.230;2022-12-07T02:37:47;8.00;;;6.13;;
51034;SDS011;37062;52.546;13.230;2022-12-07T02:40:26;8.70;;;6.50;;
51034;SDS011;37062;52.546;13.230;2022-12-07T02:42:57;8.10;;;6.50;;
51034;SDS011;37062;52.546;13.230;2022-12-07T02:45:32;9.23;;;6.53;;
51034;SDS011;37062;52.546;13.230;2022-12-07T02:48:06;13.00;;;8.30;;
51034;SDS011;37062;52.546;13.230;2022-12-07T02:50:34;11.87;;;7.30;;
51034;SDS011;37062;52.546;13.230;2022-12-07T02:53:04;9.07;;;6.10;;
51034;SDS011;37062;52.546;13.230;2022-12-07T02:55:33;7.37;;;6.03;;
51034;SDS011;37062;52.546;13.230;2022-12-07T02:58:18;8.93;;;6.33;;
51034;SDS011;37062;52.546;13.230;2022-12-07T03:00:54;9.67;;;6.27;;
51034;SDS011;37062;52.546;13.230;2022-12-07T03:03:31;8.97;;;7.37;;
51034;SDS011;37062;52.546;13.230;2022-12-07T03:06:05;9.40;;;7.20;;
51034;SDS011;37062;52.546;13.230;2022-12-07T03:08:44;11.40;;;7.53;;
51034;SDS011;37062;52.546;13.230;2022-12-07T03:11:19;11.67;;;8.20;;
51034;SDS011;37062;52.546;13.230;2022-12-07T03:13:53;10.10;;;7.30;;
51034;SDS011;37062;52.546;13.230;2022-12-07T03:16:28;12.87;;;8.70;;
51034;SDS011;37062;52.546;13.230;2022-12-07T03:18:59;11.60;;;8.50;;
51034;SDS011;37062;52.546;13.230;2022-12-07T03:21:30;12.17;;;8.93;;
51034;SDS011;37062;52.546;13.230;2022-12-07T03:24:00;15.30;;;9.90;;
51034;SDS011;37062;52.546;13.230;2022-12-07T03:26:34;14.10;;;9.70;;
51034;SDS011;37062;52.546;13.230;2022-12-07T03:29:10;12.37;;;8.93;;
51034;SDS011;37062;52.546;13.230;2022-12-07T03:31:43;11.97;;;8.70;;
51034;SDS011;37062;52.546;13.230;2022-12-07T03:34:14;15.77;;;9.80;;
51034;SDS011;37062;52.546;13.230;2022-12-07T03:36:44;13.93;;;9.83;;
51034;SDS011;37062;52.546;13.230;2022-12-07T03:39:17;13.53;;;8.87;;
51034;SDS011;37062;52.546;13.230;2022-12-07T03:41:50;15.53;;;10.47;;
51034;SDS011;37062;52.546;13.230;2022-12-07T03:44:18;12.10;;;9.00;;
51034;SDS011;37062;52.546;13.230;2022-12-07T03:46:50;13.07;;;9.27;;
51034;SDS011;37062;52.546;13.230;2022-12-07T03:49:25;16.57;;;11.30;;
51034;SDS011;37062;52.546;13.230;2022-12-07T03:51:57;12.70;;;9.80;;
51034;SDS011;37062;52.546;13.230;2022-12-07T03:54:30;17.70;;;11.27;;
51034;SDS011;37062;52.546;13.230;2022-12-07T03:57:04;15.53;;;9.60;;
51034;SDS011;37062;52.546;13.230;2022-12-07T03:59:33;13.33;;;9.83;;
51034;SDS011;37062;52.546;13.230;2022-12-07T04:02:03;13.67;;;9.93;;
51034;SDS011;37062;52.546;13.230;2022-12-07T04:04:31;16.00;;;11.63;;
51034;SDS011;37062;52.546;13.230;2022-12-07T04:07:00;16.57;;;10.37;;
51034;SDS011;37062;52.546;13.230;2022-12-07T04:09:27;15.10;;;10.57;;
51034;SDS011;37062;52.546;13.230;2022-12-07T04:11:54;13.37;;;9.27;;
51034;SDS011;37062;52.546;13.230;2022-12-07T04:14:21;17.27;;;11.47;;
51034;SDS011;37062;52.546;13.230;2022-12-07T04:16:49;14.33;;;10.23;;
51034;SDS011;37062;52.546;13.230;2022-12-07T04:19:20;19.43;;;13.53;;
51034;SDS011;37062;52.546;13.230;2022-12-07T04:21:50;17.03;;;12.30;;
51034;SDS011;37062;52.546;13.230;2022-12-07T04:24:17;21.53;;;12.23;;
51034;SDS011;37062;52.546;13.230;2022-12-07T04:26:45;27.70;;;16.50;;
51034;SDS011;37062;52.546;13.230;2022-12-07T04:29:13;21.63;;;14.13;;
51034;SDS011;37062;52.546;13.230;2022-12-07T04:31:41;19.53;;;13.10;;
51034;SDS011;37062;52.546;13.230;2022-12-07T04:34:08;18.43;;;12.33;;
51034;SDS011;37062;52.546;13.230;2022-12-07T04:36:38;22.27;;;14.50;;
51034;SDS011;37062;52.546;13.230;2022-12-07T04:39:06;25.07;;;15.37;;
51034;SDS011;37062;52.546;13.230;2022-12-07T04:41:34;21.00;;;14.23;;
51034;SDS011;37062;52.546;13.230;2022-12-07T04:44:02;21.90;;;14.30;;
51034;SDS011;37062;52.546;13.230;2022-12-07T04:46:32;18.87;;;13.03;;
51034;SDS011;37062;52.546;13.230;2022-12-07T04:48:59;20.03;;;13.40;;
51034;SDS011;37062;52.546;13.230;2022-12-07T04:51:27;18.17;;;12.60;;
51034;SDS011;37062;52.546;13.230;2022-12-07T04:53:56;19.07;;;13.97;;
51034;SDS011;37062;52.546;13.230;2022-12-07T04:56:24;19.20;;;13.33;;
51034;SDS011;37062;52.546;13.230;2022-12-07T04:58:52;22.60;;;14.47;;
51034;SDS011;37062;52.546;13.230;2022-12-07T05:01:20;18.53;;;12.83;;
51034;SDS011;37062;52.546;13.230;2022-12-07T05:03:48;20.63;;;13.70;;
51034;SDS011;37062;52.546;13.230;2022-12-07T05:06:16;21.20;;;13.97;;
51034;SDS011;37062;52.546;13.230;2022-12-07T05:08:46;22.50;;;15.07;;
51034;SDS011;37062;52.546;13.230;2022-12-07T05:11:15;26.50;;;15.80;;
51034;SDS011;37062;52.546;13.230;2022-12-07T05:13:56;23.80;;;15.97;;
51034;SDS011;37062;52.546;13.230;2022-12-07T05:16:23;26.67;;;16.37;;
51034;SDS011;37062;52.546;13.230;2022-12-07T05:18:51;23.23;;;16.23;;
51034;SDS011;37062;52.546;13.230;2022-12-07T05:21:18;24.23;;;15.40;;
51034;SDS011;37062;52.546;13.230;2022-12-07T05:23:48;23.10;;;15.67;;
51034;SDS011;37062;52.546;13.230;2022-12-07T05:26:17;23.40;;;15.47;;
51034;SDS011;37062;52.546;13.230;2022-12-07T05:28:44;21.73;;;15.03;;
51034;SDS011;37062;52.546;13.230;2022-12-07T05:31:11;23.33;;;15.87;;
51034;SDS011;37062;52.546;13.230;2022-12-07T05:33:38;24.17;;;16.33;;
51034;SDS011;37062;52.546;13.230;2022-12-07T05:36:05;23.17;;;16.10;;
51034;SDS011;37062;52.546;13.230;2022-12-07T05:38:33;20.27;;;14.23;;
51034;SDS011;37062;52.546;13.230;2022-12-07T05:41:00;24.83;;;15.90;;
51034;SDS011;37062;52.546;13.230;2022-12-07T05:43:29;23.73;;;15.90;;
51034;SDS011;37062;52.546;13.230;2022-12-07T05:45:57;23.20;;;15.10;;
51034;SDS011;37062;52.546;13.230;2022-12-07T05:48:24;23.93;;;16.53;;
51034;SDS011;37062;52.546;13.230;2022-12-07T05:50:52;24.83;;;16.73;;
51034;SDS011;37062;52.546;13.230;2022-12-07T05:53:19;24.13;;;15.43;;
51034;SDS011;37062;52.546;13.230;2022-12-07T05:55:46;29.70;;;17.17;;
51034;SDS011;37062;52.546;13.230;2022-12-07T05:58:13;25.07;;;16.33;;
51034;SDS011;37062;52.546;13.230;2022-12-07T06:00:59;26.13;;;17.70;;
51034;SDS011;37062;52.546;13.230;2022-12-07T06:03:26;27.30;;;16.20;;
51034;SDS011;37062;52.546;13.230;2022-12-07T06:05:53;22.83;;;15.57;;
51034;SDS011;37062;52.546;13.230;2022-12-07T06:08:20;24.47;;;15.93;;
51034;SDS011;37062;52.546;13.230;2022-12-07T06:10:47;28.23;;;17.27;;
51034;SDS011;37062;52.546;13.230;2022-12-07T06:13:37;27.50;;;17.47;;
51034;SDS011;37062;52.546;13.230;2022-12-07T06:16:05;23.33;;;16.47;;
51034;SDS011;37062;52.546;13.230;2022-12-07T06:18:33;29.70;;;18.33;;
51034;SDS011;37062;52.546;13.230;2022-12-07T06:21:00;23.20;;;15.53;;
51034;SDS011;37062;52.546;13.230;2022-12-07T06:23:27;25.87;;;15.97;;
51034;SDS011;37062;52.546;13.230;2022-12-07T06:25:54;23.97;;;15.63;;
51034;SDS011;37062;52.546;13.230;2022-12-07T06:28:21;24.33;;;15.20;;
51034;SDS011;37062;52.546;13.230;2022-12-07T06:30:56;22.17;;;14.63;;
51034;SDS011;37062;52.546;13.230;2022-12-07T06:33:25;22.33;;;14.57;;
51034;SDS011;37062;52.546;13.230;2022-12-07T06:35:52;23.67;;;14.73;;
51034;SDS011;37062;52.546;13.230;2022-12-07T06:38:19;20.07;;;14.20;;
51034;SDS011;37062;52.546;13.230;2022-12-07T06:40:47;20.53;;;14.20;;
51034;SDS011;37062;52.546;13.230;2022-12-07T06:43:14;21.83;;;14.00;;
51034;SDS011;37062;52.546;13.230;2022-12-07T06:45:41;24.50;;;15.07;;
51034;SDS011;37062;52.546;13.230;2022-12-07T06:48:09;20.73;;;13.95;;
51034;SDS011;37062;52.546;13.230;2022-12-07T06:50:37;25.57;;;15.27;;
51034;SDS011;37062;52.546;13.230;2022-12-07T06:53:05;24.87;;;15.97;;
51034;SDS011;37062;52.546;13.230;2022-12-07T06:55:32;24.25;;;16.38;;
51034;SDS011;37062;52.546;13.230;2022-12-07T06:57:59;23.53;;;16.27;;
51034;SDS011;37062;52.546;13.230;2022-12-07T07:00:26;22.23;;;15.20;;
51034;SDS011;37062;52.546;13.230;2022-12-07T07:02:54;21.95;;;14.65;;
51034;SDS011;37062;52.546;13.230;2022-12-07T07:05:21;22.10;;;14.53;;
51034;SDS011;37062;52.546;13.230;2022-12-07T07:08:00;20.60;;;14.63;;
51034;SDS011;37062;52.546;13.230;2022-12-07T07:10:30;26.02;;;15.60;;
51034;SDS011;37062;52.546;13.230;2022-12-07T07:13:00;23.07;;;15.20;;
51034;SDS011;37062;52.546;13.230;2022-12-07T07:15:28;24.80;;;15.43;;
51034;SDS011;37062;52.546;13.230;2022-12-07T07:17:56;22.43;;;13.80;;
51034;SDS011;37062;52.546;13.230;2022-12-07T07:20:23;23.77;;;14.47;;
51034;SDS011;37062;52.546;13.230;2022-12-07T07:22:50;22.50;;;14.00;;
51034;SDS011;37062;52.546;13.230;2022-12-07T07:25:21;17.85;;;12.77;;
51034;SDS011;37062;52.546;13.230;2022-12-07T07:27:48;19.87;;;13.87;;
51034;SDS011;37062;52.546;13.230;2022-12-07T07:30:17;17.80;;;12.40;;
51034;SDS011;37062;52.546;13.230;2022-12-07T07:32:44;20.27;;;13.37;;
51034;SDS011;37062;52.546;13.230;2022-12-07T07:35:12;17.35;;;11.88;;
51034;SDS011;37062;52.546;13.230;2022-12-07T07:37:39;16.17;;;10.40;;
51034;SDS011;37062;52.546;13.230;2022-12-07T07:40:07;19.77;;;12.33;;
51034;SDS011;37062;52.546;13.230;2022-12-07T07:42:36;18.13;;;11.37;;
51034;SDS011;37062;52.546;13.230;2022-12-07T07:45:03;19.93;;;12.53;;
51034;SDS011;37062;52.546;13.230;2022-12-07T07:47:31;15.97;;;10.67;;
51034;SDS011;37062;52.546;13.230;2022-12-07T07:49:58;15.77;;;10.00;;
51034;SDS011;37062;52.546;13.230;2022-12-07T07:52:25;15.00;;;9.80;;
51034;SDS011;37062;52.546;13.230;2022-12-07T07:54:52;15.73;;;9.47;;
51034;SDS011;37062;52.546;13.230;2022-12-07T07:57:19;13.10;;;8.77;;
51034;SDS011;37062;52.546;13.230;2022-12-07T07:59:52;12.53;;;8.90;;
51034;SDS011;37062;52.546;13.230;2022-12-07T08:02:20;10.13;;;7.40;;
51034;SDS011;37062;52.546;13.230;2022-12-07T08:04:51;14.90;;;7.67;;
51034;SDS011;37062;52.546;13.230;2022-12-07T08:07:18;10.50;;;7.60;;
51034;SDS011;37062;52.546;13.230;2022-12-07T08:09:45;10.60;;;6.93;;
51034;SDS011;37062;52.546;13.230;2022-12-07T08:12:12;9.07;;;6.13;;
51034;SDS011;37062;52.546;13.230;2022-12-07T08:14:39;11.33;;;7.00;;
51034;SDS011;37062;52.546;13.230;2022-12-07T08:17:07;11.03;;;6.80;;
51034;SDS011;37062;52.546;13.230;2022-12-07T08:19:34;9.45;;;6.47;;
51034;SDS011;37062;52.546;13.230;2022-12-07T08:22:01;7.63;;;5.27;;
51034;SDS011;37062;52.546;13.230;2022-12-07T08:24:29;7.40;;;5.07;;
51034;SDS011;37062;52.546;13.230;2022-12-07T08:26:56;7.82;;;5.00;;
51034;SDS011;37062;52.546;13.230;2022-12-07T08:29:23;8.20;;;5.07;;
51034;SDS011;37062;52.546;13.230;2022-12-07T08:31:50;6.47;;;4.88;;
51034;SDS011;37062;52.546;13.230;2022-12-07T08:34:18;6.23;;;4.50;;
51034;SDS011;37062;52.546;13.230;2022-12-07T08:36:45;7.28;;;5.07;;
51034;SDS011;37062;52.546;13.230;2022-12-07T08:39:12;6.93;;;4.70;;
51034;SDS011;37062;52.546;13.230;2022-12-07T08:41:39;5.67;;;4.50;;
51034;SDS011;37062;52.546;13.230;2022-12-07T08:44:06;3.70;;;3.22;;
51034;SDS011;37062;52.546;13.230;2022-12-07T08:46:34;3.87;;;2.47;;
51034;SDS011;37062;52.546;13.230;2022-12-07T08:49:04;2.38;;;2.05;;
51034;SDS011;37062;52.546;13.230;2022-12-07T08:51:36;4.17;;;2.27;;
51034;SDS011;37062;52.546;13.230;2022-12-07T08:54:06;2.40;;;2.07;;
51034;SDS011;37062;52.546;13.230;2022-12-07T08:56:36;2.30;;;2.10;;
51034;SDS011;37062;52.546;13.230;2022-12-07T08:59:05;2.73;;;2.00;;
51034;SDS011;37062;52.546;13.230;2022-12-07T09:01:32;3.10;;;2.17;;
51034;SDS011;37062;52.546;13.230;2022-12-07T09:03:59;2.17;;;1.97;;
51034;SDS011;37062;52.546;13.230;2022-12-07T09:06:28;3.03;;;1.80;;
51034;SDS011;37062;52.546;13.230;2022-12-07T09:08:57;3.17;;;2.07;;
51034;SDS011;37062;52.546;13.230;2022-12-07T09:11:26;3.47;;;1.73;;
51034;SDS011;37062;52.546;13.230;2022-12-07T09:13:53;3.60;;;1.90;;
51034;SDS011;37062;52.546;13.230;2022-12-07T09:16:21;2.77;;;1.83;;
51034;SDS011;37062;52.546;13.230;2022-12-07T09:18:48;2.63;;;1.90;;
51034;SDS011;37062;52.546;13.230;2022-12-07T09:21:15;2.33;;;2.07;;
51034;SDS011;37062;52.546;13.230;2022-12-07T09:23:42;2.33;;;2.13;;
51034;SDS011;37062;52.546;13.230;2022-12-07T09:26:11;2.27;;;2.07;;
51034;SDS011;37062;52.546;13.230;2022-12-07T09:28:38;2.43;;;1.93;;
51034;SDS011;37062;52.546;13.230;2022-12-07T09:31:05;2.83;;;2.10;;
51034;SDS011;37062;52.546;13.230;2022-12-07T09:33:32;4.75;;;2.28;;
51034;SDS011;37062;52.546;13.230;2022-12-07T09:36:00;2.53;;;2.20;;
51034;SDS011;37062;52.546;13.230;2022-12-07T09:38:27;4.38;;;2.20;;
51034;SDS011;37062;52.546;13.230;2022-12-07T09:40:55;3.87;;;2.00;;
51034;SDS011;37062;52.546;13.230;2022-12-07T09:43:24;3.17;;;2.10;;
51034;SDS011;37062;52.546;13.230;2022-12-07T09:45:52;2.33;;;2.13;;
51034;SDS011;37062;52.546;13.230;2022-12-07T09:48:22;3.37;;;2.00;;
51034;SDS011;37062;52.546;13.230;2022-12-07T09:50:54;2.47;;;2.27;;
51034;SDS011;37062;52.546;13.230;2022-12-07T09:53:25;3.37;;;2.10;;
51034;SDS011;37062;52.546;13.230;2022-12-07T09:55:54;2.50;;;2.10;;
51034;SDS011;37062;52.546;13.230;2022-12-07T09:58:24;2.23;;;2.00;;
51034;SDS011;37062;52.546;13.230;2022-12-07T10:00:53;2.30;;;2.03;;
51034;SDS011;37062;52.546;13.230;2022-12-07T10:03:22;2.70;;;2.10;;
51034;SDS011;37062;52.546;13.230;2022-12-07T10:05:50;3.30;;;2.10;;
51034;SDS011;37062;52.546;13.230;2022-12-07T10:08:17;2.97;;;2.60;;
51034;SDS011;37062;52.546;13.230;2022-12-07T10:10:46;3.40;;;2.50;;
51034;SDS011;37062;52.546;13.230;2022-12-07T10:13:18;3.83;;;2.70;;
51034;SDS011;37062;52.546;13.230;2022-12-07T10:15:49;2.53;;;2.17;;
51034;SDS011;37062;52.546;13.230;2022-12-07T10:18:25;3.13;;;2.50;;
51034;SDS011;37062;52.546;13.230;2022-12-07T10:21:00;3.03;;;2.23;;
51034;SDS011;37062;52.546;13.230;2022-12-07T10:23:29;2.77;;;2.33;;
51034;SDS011;37062;52.546;13.230;2022-12-07T10:25:56;4.77;;;2.60;;
51034;SDS011;37062;52.546;13.230;2022-12-07T10:28:27;4.20;;;2.93;;
51034;SDS011;37062;52.546;13.230;2022-12-07T10:31:14;5.33;;;4.77;;
51034;SDS011;37062;52.546;13.230;2022-12-07T10:33:48;6.20;;;4.47;;
51034;SDS011;37062;52.546;13.230;2022-12-07T10:36:21;4.80;;;2.80;;
51034;SDS011;37062;52.546;13.230;2022-12-07T10:38:51;5.70;;;4.30;;
51034;SDS011;37062;52.546;13.230;2022-12-07T10:41:24;9.30;;;7.00;;
51034;SDS011;37062;52.546;13.230;2022-12-07T10:43:52;10.83;;;5.50;;
51034;SDS011;37062;52.546;13.230;2022-12-07T10:46:26;3.77;;;3.33;;
51034;SDS011;37062;52.546;13.230;2022-12-07T10:49:22;5.70;;;3.17;;
51034;SDS011;37062;52.546;13.230;2022-12-07T10:52:06;4.67;;;3.10;;
51034;SDS011;37062;52.546;13.230;2022-12-07T10:54:44;4.23;;;2.93;;
51034;SDS011;37062;52.546;13.230;2022-12-07T10:57:21;4.90;;;2.70;;
51034;SDS011;37062;52.546;13.230;2022-12-07T11:00:04;4.67;;;2.93;;
51034;SDS011;37062;52.546;13.230;2022-12-07T11:02:49;3.30;;;2.80;;
51034;SDS011;37062;52.546;13.230;2022-12-07T11:05:37;5.07;;;2.90;;
51034;SDS011;37062;52.546;13.230;2022-12-07T11:08:13;3.93;;;2.77;;
51034;SDS011;37062;52.546;13.230;2022-12-07T11:10:50;4.37;;;3.27;;
51034;SDS011;37062;52.546;13.230;2022-12-07T11:13:26;3.90;;;2.97;;
51034;SDS011;37062;52.546;13.230;2022-12-07T11:16:02;4.83;;;3.07;;
51034;SDS011;37062;52.546;13.230;2022-12-07T11:18:45;6.30;;;3.70;;
51034;SDS011;37062;52.546;13.230;2022-12-07T11:21:21;3.80;;;3.30;;
51034;SDS011;37062;52.546;13.230;2022-12-07T11:23:55;5.97;;;3.30;;
51034;SDS011;37062;52.546;13.230;2022-12-07T11:26:32;3.90;;;2.93;;
51034;SDS011;37062;52.546;13.230;2022-12-07T11:29:25;4.03;;;3.07;;
51034;SDS011;37062;52.546;13.230;2022-12-07T11:32:08;4.30;;;2.63;;
51034;SDS011;37062;52.546;13.230;2022-12-07T11:34:47;4.38;;;3.13;;
51034;SDS011;37062;52.546;13.230;2022-12-07T11:37:27;2.75;;;2.50;;
51034;SDS011;37062;52.546;13.230;2022-12-07T11:40:00;5.07;;;3.50;;
51034;SDS011;37062;52.546;13.230;2022-12-07T11:42:31;5.43;;;2.83;;
51034;SDS011;37062;52.546;13.230;2022-12-07T11:45:09;4.35;;;3.10;;
51034;SDS011;37062;52.546;13.230;2022-12-07T11:47:43;5.45;;;3.13;;
51034;SDS011;37062;52.546;13.230;2022-12-07T11:50:26;5.38;;;3.10;;
51034;SDS011;37062;52.546;13.230;2022-12-07T11:52:58;4.80;;;2.83;;
51034;SDS011;37062;52.546;13.230;2022-12-07T11:55:29;4.77;;;3.00;;
51034;SDS011;37062;52.546;13.230;2022-12-07T11:58:06;4.38;;;2.72;;
51034;SDS011;37062;52.546;13.230;2022-12-07T12:00:49;4.00;;;2.55;;
51034;SDS011;37062;52.546;13.230;2022-12-07T12:03:23;3.47;;;3.03;;
51034;SDS011;37062;52.546;13.230;2022-12-07T12:05:58;5.70;;;3.45;;
51034;SDS011;37062;52.546;13.230;2022-12-07T12:08:27;5.45;;;3.20;;
51034;SDS011;37062;52.546;13.230;2022-12-07T12:10:58;7.55;;;2.80;;
51034;SDS011;37062;52.546;13.230;2022-12-07T12:13:43;3.38;;;2.70;;
51034;SDS011;37062;52.546;13.230;2022-12-07T12:16:38;8.02;;;4.65;;
51034;SDS011;37062;52.546;13.230;2022-12-07T12:19:32;9.00;;;5.53;;
51034;SDS011;37062;52.546;13.230;2022-12-07T12:22:05;7.18;;;3.47;;
51034;SDS011;37062;52.546;13.230;2022-12-07T12:24:38;5.78;;;3.22;;
51034;SDS011;37062;52.546;13.230;2022-12-07T12:27:08;6.20;;;2.45;;
51034;SDS011;37062;52.546;13.230;2022-12-07T12:29:43;5.47;;;2.75;;
51034;SDS011;37062;52.546;13.230;2022-12-07T12:32:14;4.07;;;2.50;;
51034;SDS011;37062;52.546;13.230;2022-12-07T12:34:57;4.78;;;2.28;;
51034;SDS011;37062;52.546;13.230;2022-12-07T12:37:40;6.80;;;2.53;;
51034;SDS011;37062;52.546;13.230;2022-12-07T12:58:45;12.00;;;2.72;;
51034;SDS011;37062;52.546;13.230;2022-12-07T13:04:17;6.25;;;2.25;;
51034;SDS011;37062;52.546;13.230;2022-12-07T13:06:56;6.27;;;2.37;;
51034;SDS011;37062;52.546;13.230;2022-12-07T13:09:24;6.60;;;2.20;;
51034;SDS011;37062;52.546;13.230;2022-12-07T13:11:55;3.78;;;2.00;;
51034;SDS011;37062;52.546;13.230;2022-12-07T13:23:11;5.05;;;1.70;;
51034;SDS011;37062;52.546;13.230;2022-12-07T13:25:51;3.20;;;1.63;;
51034;SDS011;37062;52.546;13.230;2022-12-07T13:28:25;5.03;;;2.10;;
51034;SDS011;37062;52.546;13.230;2022-12-07T13:31:02;7.07;;;2.13;;
51034;SDS011;37062;52.546;13.230;2022-12-07T13:33:36;5.07;;;2.43;;
51034;SDS011;37062;52.546;13.230;2022-12-07T13:36:04;7.35;;;3.25;;
51034;SDS011;37062;52.546;13.230;2022-12-07T13:38:39;3.47;;;2.30;;
51034;SDS011;37062;52.546;13.230;2022-12-07T13:41:16;7.25;;;2.70;;
51034;SDS011;37062;52.546;13.230;2022-12-07T13:43:49;2.92;;;1.95;;
51034;SDS011;37062;52.546;13.230;2022-12-07T13:46:20;4.22;;;2.35;;
51034;SDS011;37062;52.546;13.230;2022-12-07T13:48:52;4.90;;;1.98;;
51034;SDS011;37062;52.546;13.230;2022-12-07T13:51:21;5.28;;;2.33;;
51034;SDS011;37062;52.546;13.230;2022-12-07T13:53:51;7.00;;;2.20;;
51034;SDS011;37062;52.546;13.230;2022-12-07T13:56:25;4.32;;;2.20;;
51034;SDS011;37062;52.546;13.230;2022-12-07T13:58:54;5.25;;;2.35;;
51034;SDS011;37062;52.546;13.230;2022-12-07T14:01:23;6.00;;;2.20;;
51034;SDS011;37062;52.546;13.230;2022-12-07T14:03:51;7.40;;;2.60;;
51034;SDS011;37062;52.546;13.230;2022-12-07T14:06:22;4.55;;;2.70;;
51034;SDS011;37062;52.546;13.230;2022-12-07T14:09:16;9.35;;;3.85;;
51034;SDS011;37062;52.546;13.230;2022-12-07T14:11:45;6.43;;;2.47;;
51034;SDS011;37062;52.546;13.230;2022-12-07T14:14:15;3.78;;;2.30;;
51034;SDS011;37062;52.546;13.230;2022-12-07T14:16:55;4.18;;;2.30;;
51034;SDS011;37062;52.546;13.230;2022-12-07T14:19:44;8.70;;;2.75;;
51034;SDS011;37062;52.546;13.230;2022-12-07T14:22:27;4.18;;;2.50;;
51034;SDS011;37062;52.546;13.230;2022-12-07T14:25:00;5.30;;;2.13;;
51034;SDS011;37062;52.546;13.230;2022-12-07T14:27:37;6.22;;;2.25;;
51034;SDS011;37062;52.546;13.230;2022-12-07T14:30:05;5.20;;;2.55;;
51034;SDS011;37062;52.546;13.230;2022-12-07T14:32:44;3.88;;;2.15;;
51034;SDS011;37062;52.546;13.230;2022-12-07T14:35:14;3.97;;;1.95;;
51034;SDS011;37062;52.546;13.230;2022-12-07T14:37:42;3.57;;;1.70;;
51034;SDS011;37062;52.546;13.230;2022-12-07T14:42:40;6.28;;;2.45;;
51034;SDS011;37062;52.546;13.230;2022-12-07T14:45:12;7.17;;;2.10;;
51034;SDS011;37062;52.546;13.230;2022-12-07T14:47:41;8.95;;;2.38;;
51034;SDS011;37062;52.546;13.230;2022-12-07T14:50:11;4.72;;;2.35;;
51034;SDS011;37062;52.546;13.230;2022-12-07T14:52:38;5.07;;;1.93;;
51034;SDS011;37062;52.546;13.230;2022-12-07T14:55:11;5.75;;;2.50;;
51034;SDS011;37062;52.546;13.230;2022-12-07T14:57:40;8.27;;;2.37;;
51034;SDS011;37062;52.546;13.230;2022-12-07T15:00:08;5.13;;;2.10;;
51034;SDS011;37062;52.546;13.230;2022-12-07T15:02:39;4.73;;;2.53;;
51034;SDS011;37062;52.546;13.230;2022-12-07T15:05:06;6.28;;;2.30;;
51034;SDS011;37062;52.546;13.230;2022-12-07T15:07:36;5.43;;;2.30;;
51034;SDS011;37062;52.546;13.230;2022-12-07T15:10:03;5.57;;;1.97;;
51034;SDS011;37062;52.546;13.230;2022-12-07T15:12:31;3.37;;;1.90;;
51034;SDS011;37062;52.546;13.230;2022-12-07T15:14:58;7.20;;;1.90;;
51034;SDS011;37062;52.546;13.230;2022-12-07T15:17:26;4.60;;;1.83;;
51034;SDS011;37062;52.546;13.230;2022-12-07T15:19:53;6.23;;;1.80;;